Ana Sayfa
METAR-TAF:

METAR-TAF

Havaalanları :

Municipal_Airport

Cushing, Oklahoma, Amerika Birleşik Devletleri

Enlem: 35-56-59N, Boylam: 096-46-22W, yükseklik: 279 m

Güncel hava durumu gözlemi

Rapor saat 19:35 UTC de 16 dakika önce yapıldı.
Rüzgar kuzeydan 17 kt ve 21 kt'a kadar ani rüzgarlar
Sıcaklık 8°C
Nem 36%
Basınç 1029 hPa
Görüş mesafesi: 16.1 km
Açık gökyüzü

METAR: KCUH 181935Z AUTO 36017G21KT 10SM CLR 08/M06 A3039 RMK AO2 T00751061

Saat: 13:51 (19:51 UTC)


TAF: eksik

4.000'den fazla havaalanı için hava durumu gözlemleri ve tahminleri (METAR ve TAF raporları).

Kullanılabilir istasyonlar harita üzerinde sarı ve kırmızı noktalarla gösterilir.

İstasyonun adını görmek için fareyi noktanın üzerinde gezdirin.

Sonrasında hava gözlem ve tahminlerini görmek için tıklayın.

Haritayı değiştirmek için: yaklaştırmak için siyah artı işaretli yeşil düğmeye ve uzaklaştırmak için de eksi işaretli düğmeye hızla tıklayın; bitişik haritalar için yeşil okları kullanın.


METAR-TAF: